createdAt,value
2018-06-23T00:02:00.253Z,99.90
2018-06-23T00:04:29.616Z,99.90
2018-06-23T00:06:59.881Z,99.90
2018-06-23T00:09:29.259Z,99.90
2018-06-23T00:11:58.608Z,99.90
2018-06-23T00:16:56.966Z,99.90
2018-06-23T00:19:26.448Z,99.90
2018-06-23T00:21:55.791Z,99.90
2018-06-23T00:24:25.072Z,99.90
2018-06-23T00:26:54.448Z,99.90
2018-06-23T00:29:24.578Z,99.90
2018-06-23T00:31:53.981Z,99.90
2018-06-23T00:34:23.310Z,99.90
2018-06-23T00:36:52.926Z,99.90
2018-06-23T00:39:22.146Z,99.90
2018-06-23T00:41:51.496Z,99.90
2018-06-23T00:44:21.488Z,99.90
2018-06-23T00:46:50.783Z,99.90
2018-06-23T00:49:20.167Z,99.90
2018-06-23T00:51:49.536Z,99.90
2018-06-23T00:54:18.860Z,99.90
2018-06-23T00:56:48.213Z,99.90
2018-06-23T00:59:29.015Z,99.90
2018-06-23T01:01:58.458Z,99.90
2018-06-23T01:04:27.734Z,99.90
2018-06-23T01:06:57.088Z,99.90
2018-06-23T01:09:26.374Z,99.90
2018-06-23T01:11:55.765Z,99.90
2018-06-23T01:14:25.856Z,99.90
2018-06-23T01:19:24.106Z,99.90
2018-06-23T01:21:53.784Z,99.90
2018-06-23T01:24:23.327Z,99.90
2018-06-23T01:26:52.655Z,99.90
2018-06-23T01:29:21.967Z,99.90
2018-06-23T01:31:51.318Z,99.90
2018-06-23T01:34:20.698Z,99.90
2018-06-23T01:36:49.991Z,99.90
2018-06-23T01:39:19.255Z,99.90
2018-06-23T01:44:17.334Z,99.90
2018-06-23T01:46:46.771Z,99.90
2018-06-23T01:51:44.851Z,99.90
2018-06-23T01:56:43.043Z,99.90
2018-06-23T02:01:41.227Z,99.90
2018-06-23T02:06:39.342Z,99.90
2018-06-23T02:09:10.065Z,99.90
2018-06-23T02:11:39.543Z,99.90
2018-06-23T02:14:14.246Z,99.90
2018-06-23T02:16:48.978Z,99.90
2018-06-23T02:19:23.799Z,99.90
2018-06-23T02:22:58.487Z,99.90
2018-06-23T02:25:33.222Z,99.90
2018-06-23T02:29:10.512Z,99.90
2018-06-23T02:31:45.195Z,99.90
2018-06-23T02:34:19.904Z,99.90
2018-06-23T02:36:49.409Z,99.90
2018-06-23T02:39:18.687Z,99.90
2018-06-23T02:41:47.961Z,99.90
2018-06-23T02:44:17.262Z,99.90
2018-06-23T02:46:46.550Z,99.90
2018-06-23T02:49:15.848Z,99.90
2018-06-23T02:54:13.999Z,99.90
2018-06-23T02:56:43.266Z,99.90
2018-06-23T02:59:12.759Z,99.90
2018-06-23T03:01:42.666Z,99.90
2018-06-23T03:06:40.849Z,99.90
2018-06-23T03:09:10.272Z,99.90
2018-06-23T03:11:39.565Z,99.90
2018-06-23T03:14:09.591Z,99.90
2018-06-23T03:16:39.207Z,99.90
2018-06-23T03:19:08.614Z,99.90
2018-06-23T03:21:38.046Z,99.90
2018-06-23T03:24:07.390Z,99.90
2018-06-23T03:26:36.688Z,99.90
2018-06-23T03:31:35.073Z,99.90
2018-06-23T03:34:04.353Z,99.90
2018-06-23T03:36:33.647Z,99.90
2018-06-23T03:39:03.086Z,99.90
2018-06-23T03:41:32.401Z,99.90
2018-06-23T03:44:01.634Z,99.90
2018-06-23T03:46:30.935Z,99.90
2018-06-23T03:49:00.235Z,99.90
2018-06-23T03:51:29.651Z,99.90
2018-06-23T03:53:59.096Z,99.90
2018-06-23T03:56:28.318Z,99.90
2018-06-23T03:58:57.601Z,99.90
2018-06-23T04:01:26.871Z,99.90
2018-06-23T04:03:56.242Z,99.90
2018-06-23T04:06:25.513Z,99.90
2018-06-23T04:08:54.769Z,99.90
2018-06-23T04:11:25.008Z,99.90
2018-06-23T04:13:54.271Z,99.90
2018-06-23T04:16:23.625Z,99.90
2018-06-23T04:21:28.191Z,99.90
2018-06-23T04:23:57.721Z,99.90
2018-06-23T04:26:27.753Z,99.90
2018-06-23T04:28:57.437Z,99.90
2018-06-23T04:31:26.794Z,99.90
2018-06-23T04:33:56.126Z,99.90
2018-06-23T04:36:25.420Z,99.90
2018-06-23T04:38:54.708Z,99.90
2018-06-23T04:41:23.978Z,99.90
2018-06-23T04:43:53.275Z,99.90
2018-06-23T04:48:51.371Z,99.90
2018-06-23T04:51:20.661Z,99.90
2018-06-23T04:53:49.956Z,99.90
2018-06-23T04:56:19.274Z,99.90
2018-06-23T04:58:48.615Z,99.90
2018-06-23T05:01:17.966Z,99.90
2018-06-23T05:03:47.320Z,99.90
2018-06-23T05:06:16.719Z,99.90
2018-06-23T05:08:46.012Z,99.90
2018-06-23T05:11:15.325Z,99.90
2018-06-23T05:13:44.639Z,99.90
2018-06-23T05:16:13.966Z,99.90
2018-06-23T05:18:43.214Z,99.90
2018-06-23T05:21:12.509Z,99.90
2018-06-23T05:23:41.991Z,99.90
2018-06-23T05:26:11.372Z,99.90
2018-06-23T05:28:40.679Z,99.90
2018-06-23T05:31:09.983Z,99.90
2018-06-23T05:33:39.317Z,99.90
2018-06-23T05:36:08.645Z,99.90
2018-06-23T05:38:37.995Z,99.90
2018-06-23T05:41:07.319Z,99.90
2018-06-23T05:43:36.656Z,99.90
2018-06-23T05:46:06.019Z,99.90
2018-06-23T05:48:35.289Z,99.90
2018-06-23T05:51:04.680Z,99.90
2018-06-23T05:53:34.031Z,99.90
2018-06-23T05:56:06.438Z,99.90
2018-06-23T05:58:35.777Z,99.90
2018-06-23T06:01:05.352Z,99.90
2018-06-23T06:03:34.624Z,99.90
2018-06-23T06:06:04.876Z,99.90
2018-06-23T06:08:34.155Z,99.90
2018-06-23T06:11:03.472Z,99.90
2018-06-23T06:13:32.807Z,99.90
2018-06-23T06:16:02.228Z,99.90
2018-06-23T06:18:31.550Z,99.90
2018-06-23T06:21:00.876Z,99.90
2018-06-23T06:23:30.202Z,98.30
2018-06-23T06:25:59.473Z,99.20
2018-06-23T06:28:28.774Z,98.30
2018-06-23T06:33:27.085Z,96.70
2018-06-23T06:35:56.401Z,96.80
2018-06-23T06:38:25.894Z,97.40
2018-06-23T06:40:55.262Z,99.90
2018-06-23T06:43:24.641Z,99.90
2018-06-23T06:45:54.029Z,99.40
2018-06-23T06:48:23.401Z,99.90
2018-06-23T06:50:52.687Z,99.90
2018-06-23T06:53:22.184Z,99.90
2018-06-23T06:55:51.496Z,99.90
2018-06-23T06:58:20.910Z,99.30
2018-06-23T07:00:50.215Z,99.90
2018-06-23T07:03:19.630Z,99.20
2018-06-23T07:05:48.928Z,99.90
2018-06-23T07:08:18.961Z,99.90
2018-06-23T07:10:48.238Z,99.90
2018-06-23T07:13:17.688Z,99.70
2018-06-23T07:15:47.590Z,99.90
2018-06-23T07:18:16.880Z,99.90
2018-06-23T07:20:46.209Z,99.90
2018-06-23T07:23:15.641Z,99.90
2018-06-23T07:25:45.056Z,99.90
2018-06-23T07:28:14.351Z,99.90
2018-06-23T07:33:12.491Z,99.90
2018-06-23T07:35:41.768Z,99.90
2018-06-23T07:38:11.125Z,99.90
2018-06-23T07:40:40.522Z,99.90
2018-06-23T07:43:09.835Z,99.90
2018-06-23T07:45:39.230Z,99.90
2018-06-23T07:48:08.606Z,99.90
2018-06-23T07:50:38.018Z,99.90
2018-06-23T07:53:07.303Z,99.90
2018-06-23T07:55:36.650Z,99.90
2018-06-23T07:58:05.967Z,99.90
2018-06-23T08:00:35.720Z,99.90
2018-06-23T08:03:05.479Z,99.90
2018-06-23T08:05:34.872Z,99.90
2018-06-23T08:08:04.289Z,99.90
2018-06-23T08:10:33.678Z,99.90
2018-06-23T08:13:03.082Z,99.90
2018-06-23T08:15:32.487Z,99.90
2018-06-23T08:18:01.903Z,99.90
2018-06-23T08:20:31.280Z,99.90
2018-06-23T08:23:00.633Z,99.90
2018-06-23T08:25:29.945Z,99.90
2018-06-23T08:27:59.325Z,99.90
2018-06-23T08:30:28.932Z,99.90
2018-06-23T08:32:58.837Z,99.90
2018-06-23T08:35:28.213Z,99.90
2018-06-23T08:37:57.500Z,99.90
2018-06-23T08:40:26.785Z,99.90
2018-06-23T08:42:56.252Z,99.90
2018-06-23T08:45:25.989Z,99.90
2018-06-23T08:47:55.684Z,99.90
2018-06-23T08:50:25.336Z,99.90
2018-06-23T08:52:54.632Z,99.90
2018-06-23T08:55:24.939Z,99.90
2018-06-23T08:57:54.835Z,99.90
2018-06-23T09:00:24.488Z,99.90
2018-06-23T09:02:53.946Z,99.90
2018-06-23T09:05:23.197Z,99.90
2018-06-23T09:07:52.519Z,99.90
2018-06-23T09:15:19.718Z,99.90
2018-06-23T09:17:49.069Z,99.90
2018-06-23T09:20:18.409Z,99.90
2018-06-23T09:22:47.863Z,99.90
2018-06-23T09:25:17.250Z,99.90
2018-06-23T09:27:46.680Z,99.90
2018-06-23T09:30:16.101Z,99.90
2018-06-23T09:32:45.452Z,99.90
2018-06-23T09:35:14.818Z,99.90
2018-06-23T09:37:44.199Z,99.90
2018-06-23T09:42:42.348Z,99.90
2018-06-23T09:45:11.639Z,99.90
2018-06-23T09:47:40.943Z,99.90
2018-06-23T09:50:10.349Z,99.90
2018-06-23T09:52:39.741Z,99.90
2018-06-23T09:55:09.169Z,99.90
2018-06-23T09:57:38.480Z,99.90
2018-06-23T10:00:07.883Z,99.90
2018-06-23T10:02:37.241Z,99.90
2018-06-23T10:05:06.608Z,99.90
2018-06-23T10:07:36.113Z,99.90
2018-06-23T10:10:05.801Z,99.90
2018-06-23T10:12:35.159Z,99.90
2018-06-23T10:15:11.367Z,99.90
2018-06-23T10:17:40.738Z,99.90
2018-06-23T10:20:10.182Z,99.90
2018-06-23T10:22:39.705Z,99.90
2018-06-23T10:25:09.110Z,99.90
2018-06-23T10:27:38.577Z,99.90
2018-06-23T10:30:08.033Z,99.90
2018-06-23T10:32:37.495Z,99.90
2018-06-23T10:35:07.042Z,99.90
2018-06-23T10:37:36.477Z,99.90
2018-06-23T10:40:06.010Z,97.40
2018-06-23T10:42:35.224Z,97.50
2018-06-23T10:45:04.832Z,96.60
2018-06-23T10:47:34.274Z,97.50
2018-06-23T10:50:04.005Z,97.70
2018-06-23T10:52:33.613Z,97.80
2018-06-23T10:55:03.186Z,95.80
2018-06-23T10:57:32.525Z,94.80
2018-06-23T11:00:02.079Z,92.40
2018-06-23T11:02:31.453Z,93.30
2018-06-23T11:05:01.017Z,92.70
2018-06-23T11:07:30.374Z,93.90
2018-06-23T11:09:59.758Z,93.00
2018-06-23T11:12:29.155Z,93.60
2018-06-23T11:14:58.554Z,93.10
2018-06-23T11:17:27.934Z,87.70
2018-06-23T11:19:57.287Z,86.00
2018-06-23T11:22:26.635Z,84.60
2018-06-23T11:24:56.065Z,86.80
2018-06-23T11:27:25.458Z,82.60
2018-06-23T11:29:55.034Z,78.10
2018-06-23T11:32:24.495Z,74.50
2018-06-23T11:34:53.857Z,80.70
2018-06-23T11:39:52.308Z,79.30
2018-06-23T11:42:21.733Z,79.90
2018-06-23T11:44:51.183Z,79.20
2018-06-23T11:47:20.619Z,76.90
2018-06-23T11:49:50.059Z,81.00
2018-06-23T11:52:19.527Z,78.80
2018-06-23T11:54:48.915Z,83.60
2018-06-23T11:57:18.611Z,84.20
2018-06-23T11:59:48.135Z,86.90
2018-06-23T12:02:17.462Z,88.00
2018-06-23T12:04:47.030Z,88.20
2018-06-23T12:07:16.477Z,88.10
2018-06-23T12:09:45.929Z,83.10
2018-06-23T12:12:15.356Z,80.70
2018-06-23T12:14:44.845Z,81.20
2018-06-23T12:17:14.243Z,79.40
2018-06-23T12:19:45.277Z,75.80
2018-06-23T12:22:14.591Z,72.50
2018-06-23T12:24:43.996Z,69.80
2018-06-23T12:27:13.345Z,69.30
2018-06-23T12:29:42.832Z,75.00
2018-06-23T12:32:12.139Z,73.00
2018-06-23T12:34:41.636Z,76.30
2018-06-23T12:39:40.166Z,75.70
2018-06-23T12:42:09.568Z,76.30
2018-06-23T12:44:38.900Z,74.70
2018-06-23T12:47:08.272Z,73.10
2018-06-23T12:49:37.666Z,72.00
2018-06-23T12:52:07.077Z,72.30
2018-06-23T12:54:36.466Z,73.30
2018-06-23T12:57:05.892Z,72.90
2018-06-23T12:59:35.269Z,71.30
2018-06-23T13:02:05.134Z,72.80
2018-06-23T13:04:34.433Z,72.60
2018-06-23T13:07:03.784Z,72.40
2018-06-23T13:09:33.121Z,71.90
2018-06-23T13:12:02.442Z,68.20
2018-06-23T13:14:31.840Z,68.30
2018-06-23T13:17:01.260Z,66.10
2018-06-23T13:19:30.677Z,66.60
2018-06-23T13:22:00.079Z,65.80
2018-06-23T13:24:29.651Z,67.00
2018-06-23T13:26:59.260Z,68.00
2018-06-23T13:29:28.650Z,70.90
2018-06-23T13:31:58.059Z,70.70
2018-06-23T13:34:27.459Z,68.40
2018-06-23T13:36:56.996Z,67.80
2018-06-23T13:39:26.891Z,68.00
2018-06-23T13:41:56.496Z,70.50
2018-06-23T13:44:25.983Z,68.10
2018-06-23T13:46:55.365Z,69.80
2018-06-23T13:49:24.802Z,67.30
2018-06-23T13:51:54.192Z,68.30
2018-06-23T13:54:23.571Z,67.60
2018-06-23T13:56:52.893Z,67.00
2018-06-23T13:59:22.181Z,66.70
2018-06-23T14:01:52.268Z,64.20
2018-06-23T14:04:21.611Z,66.10
2018-06-23T14:09:20.200Z,63.00
2018-06-23T14:11:49.622Z,64.00
2018-06-23T14:14:19.007Z,63.30
2018-06-23T14:16:48.353Z,66.40
2018-06-23T14:19:17.686Z,64.60
2018-06-23T14:24:15.947Z,64.00
2018-06-23T14:29:14.218Z,66.50
2018-06-23T14:31:43.703Z,68.30
2018-06-23T14:34:12.914Z,68.40
2018-06-23T14:36:42.754Z,77.70
2018-06-23T14:39:12.540Z,80.60
2018-06-23T14:41:42.256Z,78.00
2018-06-23T14:44:11.882Z,78.70
2018-06-23T14:46:41.236Z,75.40
2018-06-23T14:49:10.583Z,73.40
2018-06-23T14:51:40.720Z,73.80
2018-06-23T14:54:10.197Z,75.00
2018-06-23T14:56:39.466Z,74.10
2018-06-23T14:59:08.818Z,74.00
2018-06-23T15:01:38.123Z,77.00
2018-06-23T15:04:08.024Z,79.10
2018-06-23T15:06:37.309Z,78.10
2018-06-23T15:09:18.065Z,81.00
2018-06-23T15:11:58.568Z,79.50
2018-06-23T15:14:28.148Z,81.50
2018-06-23T15:16:57.454Z,84.10
2018-06-23T15:19:26.797Z,85.10
2018-06-23T15:21:56.107Z,83.70
2018-06-23T15:24:25.541Z,78.50
2018-06-23T15:26:55.247Z,76.40
2018-06-23T15:29:24.611Z,74.70
2018-06-23T15:31:54.039Z,75.80
2018-06-23T15:34:23.391Z,75.70
2018-06-23T15:39:21.869Z,75.60
2018-06-23T15:41:51.242Z,76.60
2018-06-23T15:44:20.867Z,74.80
2018-06-23T15:46:50.161Z,74.60
2018-06-23T15:49:19.590Z,74.30
2018-06-23T15:51:48.867Z,74.80
2018-06-23T15:54:19.167Z,77.00
2018-06-23T15:56:48.602Z,78.00
2018-06-23T15:59:18.357Z,76.40
2018-06-23T16:01:47.768Z,76.00
2018-06-23T16:04:17.128Z,74.90
2018-06-23T16:06:46.408Z,74.80
2018-06-23T16:09:15.732Z,76.50
2018-06-23T16:11:45.001Z,77.50
2018-06-23T16:14:14.401Z,76.30
2018-06-23T16:16:43.718Z,76.90
2018-06-23T16:19:13.086Z,77.50
2018-06-23T16:21:42.575Z,77.50
2018-06-23T16:24:11.933Z,78.50
2018-06-23T16:26:41.703Z,77.80
2018-06-23T16:29:11.349Z,75.30
2018-06-23T16:31:40.820Z,75.10
2018-06-23T16:34:10.171Z,76.60
2018-06-23T16:36:39.494Z,76.60
2018-06-23T16:39:10.598Z,75.00
2018-06-23T16:41:40.250Z,74.50
2018-06-23T16:44:09.642Z,71.00
2018-06-23T16:51:37.012Z,71.90
2018-06-23T16:54:06.351Z,70.40
2018-06-23T16:56:35.670Z,69.60
2018-06-23T16:59:05.164Z,69.50
2018-06-23T17:01:34.489Z,72.90
2018-06-23T17:04:03.793Z,72.50
2018-06-23T17:06:33.069Z,72.10
2018-06-23T17:09:02.369Z,73.10
2018-06-23T17:11:31.700Z,73.40
2018-06-23T17:14:01.065Z,73.90
2018-06-23T17:16:30.446Z,74.10
2018-06-23T17:18:59.823Z,75.30
2018-06-23T17:21:29.092Z,74.80
2018-06-23T17:23:58.387Z,73.10
2018-06-23T17:26:27.720Z,74.40
2018-06-23T17:28:57.195Z,74.80
2018-06-23T17:31:26.564Z,75.30
2018-06-23T17:33:55.844Z,77.40
2018-06-23T17:36:25.237Z,78.40
2018-06-23T17:38:54.517Z,78.70
2018-06-23T17:41:23.926Z,78.20
2018-06-23T17:43:53.221Z,79.70
2018-06-23T17:46:22.637Z,80.60
2018-06-23T17:48:51.911Z,80.80
2018-06-23T17:51:21.232Z,80.70
2018-06-23T17:53:50.542Z,81.10
2018-06-23T17:56:20.187Z,82.00
2018-06-23T17:58:49.447Z,83.30
2018-06-23T18:01:18.944Z,83.10
2018-06-23T18:03:48.217Z,83.60
2018-06-23T18:06:17.523Z,83.00
2018-06-23T18:08:46.844Z,83.50
2018-06-23T18:11:16.411Z,83.50
2018-06-23T18:13:45.755Z,83.60
2018-06-23T18:16:15.115Z,83.70
2018-06-23T18:18:44.382Z,83.80
2018-06-23T18:21:14.129Z,83.40
2018-06-23T18:23:43.525Z,84.60
2018-06-23T18:26:12.834Z,85.20
2018-06-23T18:28:42.118Z,84.60
2018-06-23T18:31:11.391Z,85.80
2018-06-23T18:33:40.682Z,85.90
2018-06-23T18:36:10.084Z,85.80
2018-06-23T18:38:39.387Z,86.80
2018-06-23T18:41:08.726Z,87.00
2018-06-23T18:43:38.010Z,87.60
2018-06-23T18:46:07.358Z,88.30
2018-06-23T18:48:36.635Z,89.20
2018-06-23T18:51:06.132Z,89.70
2018-06-23T18:53:35.406Z,90.00
2018-06-23T18:58:33.669Z,90.10
2018-06-23T19:01:03.144Z,90.00
2018-06-23T19:03:32.423Z,90.30
2018-06-23T19:06:02.435Z,90.70
2018-06-23T19:08:31.950Z,91.00
2018-06-23T19:11:01.249Z,91.00
2018-06-23T19:13:30.508Z,91.00
2018-06-23T19:15:59.793Z,91.30
2018-06-23T19:18:29.083Z,91.60
2018-06-23T19:20:58.728Z,91.70
2018-06-23T19:23:28.043Z,91.70
2018-06-23T19:25:57.348Z,91.70
2018-06-23T19:28:26.613Z,92.10
2018-06-23T19:30:56.433Z,92.30
2018-06-23T19:35:54.675Z,92.50
2018-06-23T19:38:23.940Z,92.80
2018-06-23T19:43:22.645Z,93.40
2018-06-23T19:45:51.924Z,94.00
2018-06-23T19:48:21.213Z,94.10
2018-06-23T19:50:51.406Z,94.10
2018-06-23T19:53:20.771Z,94.30
2018-06-23T19:55:50.208Z,94.10
2018-06-23T19:58:19.485Z,94.40
2018-06-23T20:00:48.806Z,94.60
2018-06-23T20:03:18.164Z,94.80
2018-06-23T20:05:47.594Z,94.90
2018-06-23T20:08:17.024Z,94.90
2018-06-23T20:10:46.317Z,95.10
2018-06-23T20:13:15.871Z,95.30
2018-06-23T20:18:14.025Z,95.50
2018-06-23T20:20:43.440Z,95.50
2018-06-23T20:23:12.866Z,95.70
2018-06-23T20:25:42.321Z,96.30
2018-06-23T20:28:12.035Z,97.00
2018-06-23T20:30:41.420Z,97.50
2018-06-23T20:33:10.809Z,98.00
2018-06-23T20:38:09.150Z,99.00
2018-06-23T20:40:38.449Z,99.40
2018-06-23T20:43:07.905Z,99.20
2018-06-23T20:45:37.201Z,99.10
2018-06-23T20:48:06.582Z,99.40
2018-06-23T20:50:35.970Z,99.40
2018-06-23T20:53:05.570Z,99.90
2018-06-23T20:55:34.995Z,99.90
2018-06-23T20:58:04.469Z,99.90
2018-06-23T21:00:33.837Z,99.90
2018-06-23T21:03:03.153Z,99.90
2018-06-23T21:05:32.487Z,99.90
2018-06-23T21:08:01.796Z,99.90
2018-06-23T21:10:40.709Z,99.90
2018-06-23T21:13:10.393Z,99.90
2018-06-23T21:15:39.778Z,99.90
2018-06-23T21:18:09.518Z,99.90
2018-06-23T21:20:38.996Z,99.90
2018-06-23T21:23:08.378Z,99.90
2018-06-23T21:25:37.759Z,99.90
2018-06-23T21:30:36.104Z,99.90
2018-06-23T21:33:05.573Z,99.90
2018-06-23T21:35:35.828Z,99.90
2018-06-23T21:38:05.342Z,99.90
2018-06-23T21:40:34.683Z,99.90
2018-06-23T21:43:04.070Z,99.90
2018-06-23T21:45:33.538Z,99.90
2018-06-23T21:48:02.903Z,99.90
2018-06-23T21:50:32.243Z,99.90
2018-06-23T21:53:01.683Z,99.90
2018-06-23T21:55:31.046Z,99.90
2018-06-23T21:58:00.538Z,99.90
2018-06-23T22:00:35.008Z,99.90
2018-06-23T22:03:06.761Z,99.90
2018-06-23T22:05:36.510Z,99.90
2018-06-23T22:08:06.834Z,99.90
2018-06-23T22:10:36.236Z,99.90
2018-06-23T22:13:05.781Z,99.90
2018-06-23T22:15:35.184Z,99.90
2018-06-23T22:18:04.680Z,99.90
2018-06-23T22:20:34.042Z,99.90
2018-06-23T22:25:32.230Z,99.90
2018-06-23T22:28:01.602Z,99.90
2018-06-23T22:30:30.879Z,99.90
2018-06-23T22:33:00.216Z,99.90
2018-06-23T22:35:29.552Z,99.90
2018-06-23T22:37:59.064Z,99.90
2018-06-23T22:40:28.449Z,99.90
2018-06-23T22:42:57.818Z,99.90
2018-06-23T22:45:27.194Z,99.90
2018-06-23T22:47:56.625Z,99.90
2018-06-23T22:50:25.945Z,99.90
2018-06-23T22:52:55.549Z,99.90
2018-06-23T22:55:24.869Z,99.90
2018-06-23T22:57:54.225Z,99.90
2018-06-23T23:00:23.527Z,99.90
2018-06-23T23:02:54.119Z,99.90
2018-06-23T23:05:23.569Z,99.90
2018-06-23T23:07:52.861Z,99.90
2018-06-23T23:10:22.191Z,99.90
2018-06-23T23:15:20.390Z,99.90
2018-06-23T23:17:49.710Z,99.90
2018-06-23T23:20:19.006Z,99.90
2018-06-23T23:22:48.295Z,99.90
2018-06-23T23:25:17.597Z,99.90
2018-06-23T23:27:47.511Z,99.90
2018-06-23T23:32:45.552Z,99.90
2018-06-23T23:35:14.868Z,99.90
2018-06-23T23:37:44.143Z,99.90
2018-06-23T23:40:13.454Z,99.90
2018-06-23T23:42:42.726Z,99.90
2018-06-23T23:45:12.050Z,99.90
2018-06-23T23:47:41.388Z,99.90
2018-06-23T23:50:10.697Z,99.90
2018-06-23T23:52:40.022Z,99.90
2018-06-23T23:55:09.397Z,99.90
2018-06-23T23:57:38.712Z,99.90
